Terminal Aerodrome Forecast
Issued by NWS

Home | Current Version | Previous Version | Text Only | Print | Product List | Glossary On
Versions: 1 2 3 4 5 6 7 8 9 10 11 12 13 14 15 16 17 18 19 20 21 22 23 24 25 26 27 28 29 30 31 32 33 34 35 36 37 38 39 40 41 42
000
FTUS43 KDMX 251729
TAFFOD
TAF
KFOD 251729Z 2518/2618 04012G18KT 5SM -RA BR OVC005
     FM252200 05011G19KT P6SM VCSH OVC007
     FM260200 04008KT P6SM OVC005
     FM260500 03006KT 3SM BR OVC003
     FM261500 01006KT P6SM OVC003
     FM261700 35007KT P6SM OVC009=

USA.gov is the U.S. government's official web portal to all federal, state and local government web resources and services.